createdAt,value
2023-02-27T00:02:23.812Z,100004.75
2023-02-27T00:05:42.612Z,99995.16
2023-02-27T00:08:47.895Z,100003.47
2023-02-27T00:11:52.890Z,100006.69
2023-02-27T00:14:55.710Z,100012.78
2023-02-27T00:17:59.629Z,100011.44
2023-02-27T00:21:02.552Z,100010.59
2023-02-27T00:24:05.570Z,100004.28
2023-02-27T00:27:08.280Z,100003.19
2023-02-27T00:30:15.752Z,100004.59
2023-02-27T00:33:18.739Z,99999.44
2023-02-27T00:36:26.292Z,100006.56
2023-02-27T00:39:33.451Z,100004.16
2023-02-27T00:42:36.408Z,100010.59
2023-02-27T00:45:46.710Z,99997.12
2023-02-27T00:48:54.485Z,100004.78
2023-02-27T00:51:58.550Z,100000.78
2023-02-27T00:55:01.268Z,99995.81
2023-02-27T00:58:04.182Z,99989.00
2023-02-27T01:01:06.848Z,100002.87
2023-02-27T01:04:09.725Z,100012.81
2023-02-27T01:07:13.297Z,100003.78
2023-02-27T01:10:18.403Z,100003.37
2023-02-27T01:13:21.127Z,100007.38
2023-02-27T01:16:24.398Z,100010.09
2023-02-27T01:19:27.311Z,100014.16
2023-02-27T01:22:30.036Z,100022.00
2023-02-27T01:25:32.493Z,100021.00
2023-02-27T01:28:35.304Z,100024.91
2023-02-27T01:31:37.779Z,100035.56
2023-02-27T01:34:42.760Z,100031.09
2023-02-27T01:37:47.482Z,100037.53
2023-02-27T01:44:31.549Z,100044.16
2023-02-27T01:47:34.611Z,100047.03
2023-02-27T01:50:42.210Z,100047.56
2023-02-27T01:53:51.229Z,100053.31
2023-02-27T01:56:56.704Z,100053.91
2023-02-27T01:59:59.481Z,100052.47
2023-02-27T02:03:22.150Z,100058.28
2023-02-27T02:06:32.273Z,100063.56
2023-02-27T02:09:40.154Z,100061.19
2023-02-27T02:12:45.489Z,100065.13
2023-02-27T02:16:15.400Z,100064.22
2023-02-27T02:19:51.070Z,100068.16
2023-02-27T02:23:50.946Z,100061.41
2023-02-27T02:27:09.458Z,100054.63
2023-02-27T02:30:44.454Z,100068.34
2023-02-27T02:34:16.938Z,100072.75
2023-02-27T02:37:51.776Z,100071.09
2023-02-27T02:41:01.290Z,100070.16
2023-02-27T02:44:25.616Z,100078.81
2023-02-27T02:47:46.650Z,100087.59
2023-02-27T02:51:11.517Z,100089.25
2023-02-27T02:54:21.588Z,100089.88
2023-02-27T02:57:35.639Z,100095.31
2023-02-27T03:00:51.382Z,100096.09
2023-02-27T03:04:07.469Z,100102.03
2023-02-27T03:07:22.559Z,100101.09
2023-02-27T03:10:44.248Z,100110.88
2023-02-27T03:14:06.184Z,100109.06
2023-02-27T03:17:20.307Z,100116.41
2023-02-27T03:20:29.446Z,100116.56
2023-02-27T03:23:42.975Z,100129.16
2023-02-27T03:26:51.563Z,100121.97
2023-02-27T03:30:00.560Z,100133.72
2023-02-27T03:33:17.210Z,100138.97
2023-02-27T03:36:50.019Z,100143.22
2023-02-27T03:40:06.721Z,100150.03
2023-02-27T03:43:24.832Z,100157.53
2023-02-27T03:46:30.138Z,100161.44
2023-02-27T03:49:33.311Z,100159.88
2023-02-27T03:52:35.895Z,100162.31
2023-02-27T03:55:45.919Z,100170.88
2023-02-27T03:58:48.469Z,100165.75
2023-02-27T04:01:55.575Z,100167.38
2023-02-27T04:04:58.663Z,100165.66
2023-02-27T04:08:16.441Z,100171.25
2023-02-27T04:11:45.238Z,100176.78
2023-02-27T04:14:56.231Z,100189.78
2023-02-27T04:18:20.166Z,100188.41
2023-02-27T04:21:34.801Z,100197.47
2023-02-27T04:25:15.471Z,100192.38
2023-02-27T04:28:45.713Z,100203.97
2023-02-27T04:31:50.953Z,100204.75
2023-02-27T04:35:04.052Z,100201.91
2023-02-27T04:38:21.680Z,100205.78
2023-02-27T04:41:32.841Z,100206.53
2023-02-27T04:44:38.630Z,100200.31
2023-02-27T04:47:48.779Z,100196.63
2023-02-27T04:51:00.364Z,100208.72
2023-02-27T04:54:11.012Z,100205.41
2023-02-27T04:57:19.899Z,100205.28
2023-02-27T05:00:26.785Z,100207.38
2023-02-27T05:03:35.587Z,100207.53
2023-02-27T05:06:41.586Z,100203.06
2023-02-27T05:09:52.351Z,100210.37
2023-02-27T05:12:59.629Z,100219.94
2023-02-27T05:16:20.415Z,100223.87
2023-02-27T05:19:33.926Z,100229.09
2023-02-27T05:22:53.588Z,100233.28
2023-02-27T05:26:02.341Z,100239.16
2023-02-27T05:29:28.124Z,100251.28
2023-02-27T05:32:33.928Z,100241.09
2023-02-27T05:35:52.376Z,100254.66
2023-02-27T05:39:00.091Z,100262.09
2023-02-27T05:42:12.018Z,100268.66
2023-02-27T05:45:20.372Z,100268.88
2023-02-27T05:48:30.426Z,100268.91
2023-02-27T05:51:35.830Z,100274.69
2023-02-27T05:54:44.730Z,100282.59
2023-02-27T05:58:01.449Z,100280.94
2023-02-27T06:01:07.273Z,100279.28
2023-02-27T06:04:10.238Z,100287.50
2023-02-27T06:07:14.864Z,100292.25
2023-02-27T06:10:19.680Z,100298.97
2023-02-27T06:13:23.918Z,100305.34
2023-02-27T06:16:27.158Z,100306.47
2023-02-27T06:19:29.787Z,100317.97
2023-02-27T06:22:33.399Z,100329.50
2023-02-27T06:25:35.906Z,100329.50
2023-02-27T06:28:38.825Z,100341.66
2023-02-27T06:31:41.261Z,100339.00
2023-02-27T06:34:46.127Z,100339.00
2023-02-27T06:37:51.064Z,100328.72
2023-02-27T06:40:56.317Z,100344.28
2023-02-27T06:43:58.801Z,100340.12
2023-02-27T06:47:01.540Z,100352.37
2023-02-27T06:50:11.294Z,100356.13
2023-02-27T06:53:14.016Z,100351.41
2023-02-27T06:56:16.478Z,100359.47
2023-02-27T06:59:19.212Z,100359.25
2023-02-27T07:02:23.875Z,100369.72
2023-02-27T07:05:26.643Z,100369.88
2023-02-27T07:08:29.298Z,100379.03
2023-02-27T07:11:32.042Z,100385.03
2023-02-27T07:14:36.602Z,100396.28
2023-02-27T07:17:39.677Z,100389.87
2023-02-27T07:20:42.884Z,100394.41
2023-02-27T07:23:45.740Z,100402.13
2023-02-27T07:26:48.384Z,100415.66
2023-02-27T07:29:51.107Z,100414.94
2023-02-27T07:32:53.643Z,100419.66
2023-02-27T07:35:56.478Z,100426.84
2023-02-27T07:38:59.529Z,100424.25
2023-02-27T07:42:05.248Z,100430.84
2023-02-27T07:45:11.562Z,100436.00
2023-02-27T07:48:14.327Z,100439.50
2023-02-27T07:51:16.833Z,100438.22
2023-02-27T07:54:22.105Z,100454.72
2023-02-27T07:57:26.892Z,100459.28
2023-02-27T08:00:29.813Z,100473.00
2023-02-27T08:03:32.749Z,100472.38
2023-02-27T08:06:35.230Z,100469.72
2023-02-27T08:09:38.118Z,100471.84
2023-02-27T08:12:40.775Z,100478.91
2023-02-27T08:15:43.573Z,100481.37
2023-02-27T08:18:46.043Z,100481.16
2023-02-27T08:21:51.554Z,100490.16
2023-02-27T08:24:54.095Z,100497.44
2023-02-27T08:27:56.951Z,100500.22
2023-02-27T08:31:01.642Z,100504.63
2023-02-27T08:34:10.205Z,100506.69
2023-02-27T08:37:13.255Z,100506.66
2023-02-27T08:40:17.163Z,100506.84
2023-02-27T08:43:26.163Z,100500.84
2023-02-27T08:46:29.285Z,100500.25
2023-02-27T08:49:32.178Z,100504.72
2023-02-27T08:52:35.061Z,100509.38
2023-02-27T08:55:37.740Z,100522.41
2023-02-27T08:58:42.687Z,100516.44
2023-02-27T09:01:47.764Z,100532.16
2023-02-27T09:04:50.533Z,100524.41
2023-02-27T09:07:53.211Z,100544.22
2023-02-27T09:10:57.287Z,100547.41
2023-02-27T09:13:59.818Z,100544.22
2023-02-27T09:17:06.522Z,100553.34
2023-02-27T09:20:10.788Z,100569.47
2023-02-27T09:23:13.528Z,100571.44
2023-02-27T09:26:17.140Z,100567.09
2023-02-27T09:29:23.911Z,100586.22
2023-02-27T09:32:27.206Z,100577.72
2023-02-27T09:35:32.284Z,100591.38
2023-02-27T09:38:40.983Z,100587.56
2023-02-27T09:42:09.874Z,100595.47
2023-02-27T09:45:24.863Z,100601.88
2023-02-27T09:52:51.061Z,100613.81
2023-02-27T09:56:00.890Z,100626.81
2023-02-27T09:59:22.330Z,100636.87
2023-02-27T10:02:44.183Z,100624.84
2023-02-27T10:06:17.375Z,100640.69
2023-02-27T10:09:33.521Z,100643.47
2023-02-27T10:13:10.936Z,100652.38
2023-02-27T10:16:22.037Z,100653.69
2023-02-27T10:19:39.770Z,100658.78
2023-02-27T10:22:50.617Z,100659.22
